Time;durP1;ratioP1;P1;durP2;ratioP2;P2;SDS_P1;SDS_P2;PMS_P1;PMS_P2;Temp;Humidity;BMP_temperature;BMP_pressure;BME280_temperature;BME280_humidity;BME280_pressure;Samples;Min_cycle;Max_cycle;Signal;HPM_P1;HPM_P2
2022/05/17 00:00:45;;;;;;;3.58;1.20;;;;;;;-145.52;100.00;57022.44;5086898;28;20369;-66
2022/05/17 00:03:10;;;;;;;2.05;0.90;;;;;;;-145.52;100.00;57022.44;5089323;28;20043;-66
2022/05/17 00:05:36;;;;;;;3.28;1.23;;;;;;;-145.52;100.00;57022.44;5091424;28;20036;-66
2022/05/17 00:08:02;;;;;;;3.75;0.98;;;;;;;-145.52;100.00;57022.44;5089164;28;20044;-66
2022/05/17 00:10:28;;;;;;;2.63;0.60;;;;;;;-145.52;100.00;57022.44;5067056;28;20043;-66
2022/05/17 00:12:54;;;;;;;2.97;1.27;;;;;;;-145.52;100.00;57022.44;5074817;28;20033;-66
2022/05/17 00:15:21;;;;;;;2.63;1.08;;;;;;;-145.52;100.00;57022.44;5060746;28;20400;-65
2022/05/17 00:17:48;;;;;;;1.90;0.90;;;;;;;-145.52;100.00;57022.44;5076246;28;20131;-66
2022/05/17 00:20:15;;;;;;;1.85;0.75;;;;;;;-145.52;100.00;57022.44;5044946;28;20131;-66
2022/05/17 00:22:41;;;;;;;2.35;0.90;;;;;;;-145.52;100.00;57022.44;5077248;28;20043;-66
2022/05/17 00:25:08;;;;;;;2.95;0.90;;;;;;;-145.52;100.00;57022.44;5059594;28;20043;-66
2022/05/17 00:27:34;;;;;;;4.10;1.30;;;;;;;-145.52;100.00;57022.44;5056551;28;20041;-67
2022/05/17 00:30:00;;;;;;;1.70;0.82;;;;;;;-145.52;100.00;57022.44;5075163;28;20040;-67
2022/05/17 00:32:25;;;;;;;2.92;1.02;;;;;;;-145.52;100.00;57022.44;5078383;28;20392;-67
2022/05/17 00:34:50;;;;;;;2.55;1.00;;;;;;;-145.52;100.00;57022.44;5077518;28;20036;-67
2022/05/17 00:37:16;;;;;;;3.03;1.10;;;;;;;-145.52;100.00;57022.44;5060584;28;20033;-65
2022/05/17 00:39:42;;;;;;;2.92;1.00;;;;;;;-145.52;100.00;57022.44;5091938;28;20096;-66
2022/05/17 00:42:08;;;;;;;2.05;0.75;;;;;;;-145.52;100.00;57022.44;5087053;28;20111;-65
2022/05/17 00:44:45;;;;;;;3.55;1.27;;;;;;;-145.52;100.00;57022.44;5074852;28;20057;-66
2022/05/17 00:47:23;;;;;;;2.45;0.90;;;;;;;-145.52;100.00;57022.44;5078517;28;20119;-65
2022/05/17 00:50:11;;;;;;;2.13;0.93;;;;;;;-145.52;100.00;57022.44;5081761;28;20112;-65
2022/05/17 00:52:53;;;;;;;1.67;0.80;;;;;;;-145.52;100.00;57022.44;5054179;28;20045;-66
2022/05/17 00:55:24;;;;;;;3.03;1.08;;;;;;;-145.52;100.00;57022.44;5073865;28;20024;-66
2022/05/17 00:57:55;;;;;;;2.17;1.00;;;;;;;-145.52;100.00;57022.44;5073851;28;20033;-66
2022/05/17 01:00:22;;;;;;;2.40;1.10;;;;;;;-145.52;100.00;57022.44;5074772;28;20499;-65
2022/05/17 01:02:54;;;;;;;3.90;1.10;;;;;;;-145.52;100.00;57022.44;5073902;28;20056;-66
2022/05/17 01:05:23;;;;;;;2.53;1.10;;;;;;;-145.52;100.00;57022.44;5074961;28;20472;-65
2022/05/17 01:07:53;;;;;;;2.35;1.10;;;;;;;-145.52;100.00;57022.44;5074327;28;20503;-65
2022/05/17 01:10:19;;;;;;;1.88;1.02;;;;;;;-145.52;100.00;57022.44;5073535;28;20058;-65
2022/05/17 01:14:57;;;;;;;2.42;1.00;;;;;;;-145.52;100.00;57022.44;5053341;28;20467;-65
2022/05/17 01:15:30;;;;;;;2.50;1.13;;;;;;;-145.52;100.00;57022.44;5054613;28;20400;-66
2022/05/17 01:17:56;;;;;;;2.45;1.10;;;;;;;-145.52;100.00;57022.44;5054554;28;20458;-65
2022/05/17 01:20:21;;;;;;;4.25;1.10;;;;;;;-145.52;100.00;57022.44;5054271;28;20037;-66
2022/05/17 01:22:47;;;;;;;3.63;1.30;;;;;;;-145.52;100.00;57022.44;5054495;28;20029;-66
2022/05/17 01:25:12;;;;;;;2.95;1.15;;;;;;;-145.52;100.00;57022.44;5073897;28;20033;-66
2022/05/17 01:27:51;;;;;;;2.10;1.00;;;;;;;-145.52;100.00;57022.44;5073281;28;20109;-66
2022/05/17 01:30:24;;;;;;;2.30;1.10;;;;;;;-145.52;100.00;57022.44;5077620;28;20067;-66
2022/05/17 01:32:51;;;;;;;2.35;1.00;;;;;;;-145.52;100.00;57022.44;5079015;28;20025;-66
2022/05/17 01:35:18;;;;;;;3.60;1.30;;;;;;;-145.52;100.00;57022.44;5081428;28;20047;-66
2022/05/17 01:37:44;;;;;;;2.67;1.30;;;;;;;-145.52;100.00;57022.44;5078361;28;20038;-66
2022/05/17 01:40:10;;;;;;;4.43;1.30;;;;;;;-145.52;100.00;57022.44;5075957;28;20032;-66
2022/05/17 01:42:36;;;;;;;2.30;1.10;;;;;;;-145.52;100.00;57022.44;5082460;28;20065;-66
2022/05/17 01:45:04;;;;;;;2.65;0.85;;;;;;;-145.52;100.00;57022.44;5080439;28;20039;-66
2022/05/17 01:47:30;;;;;;;8.38;1.08;;;;;;;-145.52;100.00;57022.44;5051717;28;20468;-66
2022/05/17 01:49:55;;;;;;;2.38;0.93;;;;;;;-145.52;100.00;57022.44;5086398;28;20040;-67
2022/05/17 01:52:21;;;;;;;2.60;0.90;;;;;;;-145.52;100.00;57022.44;5072994;28;20040;-67
2022/05/17 01:54:47;;;;;;;2.60;1.00;;;;;;;-145.52;100.00;57022.44;5055908;28;20041;-66
2022/05/17 01:57:12;;;;;;;2.28;0.90;;;;;;;-145.52;100.00;57022.44;5072728;28;20039;-66
2022/05/17 01:59:38;;;;;;;5.05;1.17;;;;;;;-145.52;100.00;57022.44;5074276;28;20029;-66
2022/05/17 02:02:03;;;;;;;2.35;1.23;;;;;;;-145.52;100.00;57022.44;5073738;28;20063;-66
2022/05/17 02:04:29;;;;;;;2.60;1.08;;;;;;;-145.52;100.00;57022.44;5072516;28;20131;-67
2022/05/17 02:06:55;;;;;;;2.35;1.00;;;;;;;-145.52;100.00;57022.44;5035966;28;20044;-66
2022/05/17 02:09:20;;;;;;;3.95;1.08;;;;;;;-145.52;100.00;57022.44;5053733;28;20071;-67
2022/05/17 02:11:45;;;;;;;3.63;1.05;;;;;;;-145.52;100.00;57022.44;5053788;28;20033;-67
2022/05/17 02:14:11;;;;;;;2.65;0.80;;;;;;;-145.52;100.00;57022.44;5052628;28;20063;-67
2022/05/17 02:16:38;;;;;;;2.67;1.20;;;;;;;-145.52;100.00;57022.44;5054129;28;20036;-66
2022/05/17 02:19:06;;;;;;;3.35;1.35;;;;;;;-145.52;100.00;57022.44;5052842;28;20060;-66
2022/05/17 02:21:36;;;;;;;2.72;0.90;;;;;;;-145.52;100.00;57022.44;5052290;28;20067;-66
2022/05/17 02:24:05;;;;;;;2.30;0.98;;;;;;;-145.52;100.00;57022.44;5076241;28;20025;-66
2022/05/17 02:26:32;;;;;;;2.13;0.80;;;;;;;-145.52;100.00;57022.44;5074752;28;20346;-67
2022/05/17 02:28:58;;;;;;;3.13;0.90;;;;;;;-145.52;100.00;57022.44;5073803;28;20154;-66
2022/05/17 02:31:23;;;;;;;3.28;1.30;;;;;;;-145.52;100.00;57022.44;5072355;28;20123;-66
2022/05/17 02:33:49;;;;;;;5.72;1.27;;;;;;;-145.52;100.00;57022.44;5072741;28;20029;-66
2022/05/17 02:36:14;;;;;;;3.03;1.25;;;;;;;-145.52;100.00;57022.44;5074295;28;20036;-67
2022/05/17 02:38:40;;;;;;;3.85;1.00;;;;;;;-145.52;100.00;57022.44;5073827;28;20102;-66
2022/05/17 02:41:07;;;;;;;2.63;0.98;;;;;;;-145.52;100.00;57022.44;5073376;28;20529;-65
2022/05/17 02:43:33;;;;;;;4.68;1.45;;;;;;;-145.52;100.00;57022.44;5072055;28;20480;-66
2022/05/17 02:45:58;;;;;;;6.18;1.10;;;;;;;-145.52;100.00;57022.44;5073713;28;20028;-66
2022/05/17 02:48:24;;;;;;;2.22;0.90;;;;;;;-145.52;100.00;57022.44;5072374;28;20052;-66
2022/05/17 02:50:49;;;;;;;3.47;1.10;;;;;;;-145.52;100.00;57022.44;5072504;28;20115;-66
2022/05/17 02:53:15;;;;;;;2.35;1.20;;;;;;;-145.52;100.00;57022.44;5073152;28;20530;-66
2022/05/17 02:55:40;;;;;;;4.75;0.85;;;;;;;-145.52;100.00;57022.44;5073469;28;20457;-66
2022/05/17 02:58:06;;;;;;;2.63;1.00;;;;;;;-145.52;100.00;57022.44;5072041;28;20430;-66
2022/05/17 03:00:32;;;;;;;2.20;1.20;;;;;;;-145.52;100.00;57022.44;5078915;28;20040;-66
2022/05/17 03:02:57;;;;;;;2.80;1.05;;;;;;;-145.52;100.00;57022.44;5088094;28;20496;-66
2022/05/17 03:05:23;;;;;;;3.28;1.05;;;;;;;-145.52;100.00;57022.44;5085763;28;20059;-65
2022/05/17 03:07:49;;;;;;;3.00;1.23;;;;;;;-145.52;100.00;57022.44;5077763;28;20051;-65
2022/05/17 03:10:14;;;;;;;2.50;0.95;;;;;;;-145.52;100.00;57022.44;5087980;28;20045;-65
2022/05/17 03:12:40;;;;;;;3.67;1.20;;;;;;;-145.52;100.00;57022.44;5089432;28;20032;-65
2022/05/17 03:15:07;;;;;;;2.85;1.02;;;;;;;-145.52;100.00;57022.44;5092027;28;20114;-65
2022/05/17 03:17:33;;;;;;;3.28;0.90;;;;;;;-145.52;100.00;57022.44;5092074;28;20528;-65
2022/05/17 03:19:59;;;;;;;3.63;1.20;;;;;;;-145.52;100.00;57022.44;5092367;28;20403;-65
2022/05/17 03:22:25;;;;;;;2.25;0.88;;;;;;;-145.52;100.00;57022.44;5091159;28;20036;-65
2022/05/17 03:24:51;;;;;;;2.53;0.82;;;;;;;-145.52;100.00;57022.44;5092210;28;20071;-65
2022/05/17 03:27:18;;;;;;;4.68;1.35;;;;;;;-145.52;100.00;57022.44;5061435;28;20454;-65
2022/05/17 03:29:43;;;;;;;4.38;1.10;;;;;;;-145.52;100.00;57022.44;5077386;28;20071;-65
2022/05/17 03:32:09;;;;;;;2.40;0.90;;;;;;;-145.52;100.00;57022.44;5079780;28;20060;-65
2022/05/17 03:34:35;;;;;;;4.07;2.30;;;;;;;-145.52;100.00;57022.44;5081787;28;20115;-65
2022/05/17 03:37:00;;;;;;;4.35;1.83;;;;;;;-145.52;100.00;57022.44;5092519;28;20103;-65
2022/05/17 03:39:26;;;;;;;4.50;2.08;;;;;;;-145.52;100.00;57022.44;5092522;28;20170;-65
2022/05/17 03:41:51;;;;;;;2.58;1.48;;;;;;;-145.52;100.00;57022.44;5093006;28;20469;-66
2022/05/17 03:44:17;;;;;;;3.08;1.10;;;;;;;-145.52;100.00;57022.44;5091278;28;20044;-65
2022/05/17 03:46:43;;;;;;;7.60;1.50;;;;;;;-145.52;100.00;57022.44;5093169;28;20129;-66
2022/05/17 03:49:09;;;;;;;1.88;1.00;;;;;;;-145.52;100.00;57022.44;5072816;28;20036;-66
2022/05/17 03:51:35;;;;;;;2.00;0.90;;;;;;;-145.52;100.00;57022.44;5092845;28;20548;-66
2022/05/17 03:54:01;;;;;;;3.53;0.90;;;;;;;-145.52;100.00;57022.44;5090694;28;20036;-65
2022/05/17 03:56:26;;;;;;;2.20;1.00;;;;;;;-145.52;100.00;57022.44;5073925;28;20061;-66
2022/05/17 03:58:52;;;;;;;3.47;0.90;;;;;;;-145.52;100.00;57022.44;5092578;28;20032;-65
2022/05/17 04:01:17;;;;;;;3.25;1.10;;;;;;;-145.52;100.00;57022.44;5089266;28;20051;-65
2022/05/17 04:03:43;;;;;;;1.33;0.70;;;;;;;-145.52;100.00;57022.44;5092962;28;20032;-65
2022/05/17 04:06:08;;;;;;;3.67;0.82;;;;;;;-145.52;100.00;57022.44;5089683;28;20040;-65
2022/05/17 04:08:36;;;;;;;2.08;0.70;;;;;;;-145.52;100.00;57022.44;5090962;28;20055;-65
2022/05/17 04:11:01;;;;;;;2.13;0.52;;;;;;;-145.52;100.00;57022.44;5073321;28;20482;-65
2022/05/17 04:13:29;;;;;;;1.23;0.60;;;;;;;-145.52;100.00;57022.44;5090555;28;20109;-65
2022/05/17 04:15:56;;;;;;;2.55;0.80;;;;;;;-145.52;100.00;57022.44;5092100;28;20066;-65
2022/05/17 04:18:22;;;;;;;3.65;0.70;;;;;;;-145.52;100.00;57022.44;5071508;28;20045;-64
2022/05/17 04:20:47;;;;;;;2.75;0.70;;;;;;;-145.52;100.00;57022.44;5074231;28;20032;-65
2022/05/17 04:23:13;;;;;;;1.25;0.60;;;;;;;-145.52;100.00;57022.44;5089032;28;20396;-66
2022/05/17 04:25:38;;;;;;;2.30;0.85;;;;;;;-145.52;100.00;57022.44;5072960;28;20081;-65
2022/05/17 04:28:04;;;;;;;2.50;0.70;;;;;;;-145.52;100.00;57022.44;5090976;28;20034;-65
2022/05/17 04:30:29;;;;;;;3.53;0.90;;;;;;;-145.52;100.00;57022.44;5092085;28;20035;-64
2022/05/17 04:32:55;;;;;;;1.00;0.30;;;;;;;-145.52;100.00;57022.44;5073781;28;20035;-64
2022/05/17 04:35:20;;;;;;;2.58;0.70;;;;;;;-145.52;100.00;57022.44;5085431;28;20052;-66
2022/05/17 04:37:46;;;;;;;3.22;0.57;;;;;;;-145.52;100.00;57022.44;5075619;28;20357;-67
2022/05/17 04:40:13;;;;;;;1.02;0.40;;;;;;;-145.52;100.00;57022.44;5075386;28;20071;-66
2022/05/17 04:42:41;;;;;;;1.17;0.40;;;;;;;-145.52;100.00;57022.44;5080058;28;20031;-66
2022/05/17 04:45:10;;;;;;;1.05;0.22;;;;;;;-145.52;100.00;57022.44;5075118;28;20131;-66
2022/05/17 04:47:38;;;;;;;0.77;0.38;;;;;;;-145.52;100.00;57022.44;5075558;28;20032;-66
2022/05/17 04:50:04;;;;;;;2.90;0.50;;;;;;;-145.52;100.00;57022.44;5086401;28;20038;-67
2022/05/17 04:52:30;;;;;;;1.00;0.40;;;;;;;-145.52;100.00;57022.44;5057025;28;20071;-66
2022/05/17 04:54:55;;;;;;;2.63;0.50;;;;;;;-145.52;100.00;57022.44;5073691;28;20067;-66
2022/05/17 04:57:20;;;;;;;1.20;0.28;;;;;;;-145.52;100.00;57022.44;5081676;28;20048;-65
2022/05/17 04:59:46;;;;;;;1.42;0.40;;;;;;;-145.52;100.00;57022.44;5077701;28;20460;-64
2022/05/17 05:02:11;;;;;;;0.75;0.30;;;;;;;-145.52;100.00;57022.44;5072539;28;20028;-66
2022/05/17 05:04:38;;;;;;;1.85;0.40;;;;;;;-145.52;100.00;57022.44;5080074;28;20032;-66
2022/05/17 05:07:05;;;;;;;2.13;0.50;;;;;;;-145.52;100.00;57022.44;5073417;28;20052;-64
2022/05/17 05:09:31;;;;;;;1.08;0.40;;;;;;;-145.52;100.00;57022.44;5080773;28;20032;-65
2022/05/17 05:11:57;;;;;;;2.67;0.60;;;;;;;-145.52;100.00;57022.44;5073364;28;20447;-66
2022/05/17 05:14:23;;;;;;;2.15;0.60;;;;;;;-145.52;100.00;57022.44;5074486;28;20044;-66
2022/05/17 05:16:49;;;;;;;1.85;0.47;;;;;;;-145.52;100.00;57022.44;5072736;28;20040;-66
2022/05/17 05:19:14;;;;;;;0.63;0.22;;;;;;;-145.52;100.00;57022.44;5073117;28;20099;-67
2022/05/17 05:21:40;;;;;;;1.38;0.70;;;;;;;-145.52;100.00;57022.44;5074560;28;20036;-67
2022/05/17 05:24:07;;;;;;;1.95;0.50;;;;;;;-145.52;100.00;57022.44;5056578;28;20051;-67
2022/05/17 05:26:33;;;;;;;2.60;0.60;;;;;;;-145.52;100.00;57022.44;5073788;28;20479;-66
2022/05/17 05:28:59;;;;;;;2.47;0.45;;;;;;;-145.52;100.00;57022.44;5071795;28;20039;-67
2022/05/17 05:31:24;;;;;;;2.10;0.40;;;;;;;-145.52;100.00;57022.44;5072008;28;20032;-66
2022/05/17 05:33:50;;;;;;;1.83;0.90;;;;;;;-145.52;100.00;57022.44;5049462;28;20058;-65
2022/05/17 05:36:15;;;;;;;3.85;0.73;;;;;;;-145.52;100.00;57022.44;5077451;28;20029;-67
2022/05/17 05:38:41;;;;;;;4.57;1.25;;;;;;;-145.52;100.00;57022.44;5094287;28;20039;-67
2022/05/17 05:41:10;;;;;;;2.17;0.88;;;;;;;-145.52;100.00;57022.44;5085462;28;20028;-65
2022/05/17 05:43:35;;;;;;;7.47;1.13;;;;;;;-145.52;100.00;57022.44;5068088;28;20040;-65
2022/05/17 05:46:01;;;;;;;2.20;0.63;;;;;;;-145.52;100.00;57022.44;5073002;28;20036;-65
2022/05/17 05:48:26;;;;;;;1.70;0.60;;;;;;;-145.52;100.00;57022.44;5083101;28;20035;-65
2022/05/17 05:50:53;;;;;;;4.72;1.00;;;;;;;-145.52;100.00;57022.44;5089121;28;20036;-66
2022/05/17 05:53:19;;;;;;;1.75;0.52;;;;;;;-145.52;100.00;57022.44;5077232;28;20036;-65
2022/05/17 05:55:45;;;;;;;1.67;0.60;;;;;;;-145.52;100.00;57022.44;5055599;28;20216;-65
2022/05/17 05:58:11;;;;;;;1.95;0.60;;;;;;;-145.52;100.00;57022.44;5072302;28;20032;-66
2022/05/17 06:00:38;;;;;;;2.38;0.80;;;;;;;-145.52;100.00;57022.44;5072656;28;20032;-65
2022/05/17 06:03:05;;;;;;;3.92;1.33;;;;;;;-145.52;100.00;57022.44;5072426;28;20025;-65
2022/05/17 06:05:31;;;;;;;2.45;0.80;;;;;;;-145.52;100.00;57022.44;5072457;28;20036;-64
2022/05/17 06:07:57;;;;;;;1.33;0.55;;;;;;;-145.52;100.00;57022.44;5055569;28;20408;-64
2022/05/17 06:10:23;;;;;;;4.95;0.60;;;;;;;-145.52;100.00;57022.44;5073788;28;20116;-66
2022/05/17 06:12:49;;;;;;;1.33;0.30;;;;;;;-145.52;100.00;57022.44;5056560;28;20025;-65
2022/05/17 06:15:16;;;;;;;4.78;0.60;;;;;;;-145.52;100.00;57022.44;5053938;28;20032;-65
2022/05/17 06:17:41;;;;;;;2.40;0.63;;;;;;;-145.52;100.00;57022.44;5072132;28;20064;-65
2022/05/17 06:20:11;;;;;;;1.30;0.47;;;;;;;-145.52;100.00;57022.44;5073446;28;20060;-67
2022/05/17 06:22:37;;;;;;;3.72;1.73;;;;;;;-145.52;100.00;57022.44;5072156;28;20025;-66
2022/05/17 06:25:03;;;;;;;2.42;0.80;;;;;;;-145.52;100.00;57022.44;5055634;28;20070;-66
2022/05/17 06:27:28;;;;;;;2.33;0.80;;;;;;;-145.52;100.00;57022.44;5055536;28;20044;-66
2022/05/17 06:29:54;;;;;;;2.30;0.50;;;;;;;-145.52;100.00;57022.44;5073266;28;20036;-66
2022/05/17 06:32:19;;;;;;;2.42;0.73;;;;;;;-145.52;100.00;57022.44;5072033;28;20464;-65
2022/05/17 06:34:45;;;;;;;2.38;0.60;;;;;;;-145.52;100.00;57022.44;5073025;28;20036;-65
2022/05/17 06:37:11;;;;;;;1.73;0.63;;;;;;;-145.52;100.00;57022.44;5071916;28;20036;-64
2022/05/17 06:39:38;;;;;;;1.65;0.75;;;;;;;-145.52;100.00;57022.44;5036707;28;20029;-65
2022/05/17 06:42:04;;;;;;;2.97;0.73;;;;;;;-145.52;100.00;57022.44;5069751;28;20056;-66
2022/05/17 06:44:30;;;;;;;3.47;0.80;;;;;;;-145.52;100.00;57022.44;5071468;28;20127;-65
2022/05/17 06:46:58;;;;;;;1.38;0.50;;;;;;;-145.52;100.00;57022.44;5073169;28;20116;-67
2022/05/17 06:49:25;;;;;;;2.92;1.00;;;;;;;-145.52;100.00;57022.44;5077086;28;20456;-66
2022/05/17 06:51:50;;;;;;;3.92;1.30;;;;;;;-145.52;100.00;57022.44;5090642;28;20038;-66
2022/05/17 06:54:16;;;;;;;4.35;1.50;;;;;;;-145.52;100.00;57022.44;5077192;28;20036;-67
2022/05/17 06:56:41;;;;;;;5.20;1.10;;;;;;;-145.52;100.00;57022.44;5094318;28;20054;-68
2022/05/17 06:59:07;;;;;;;2.85;1.00;;;;;;;-145.52;100.00;57022.44;5095863;28;20032;-68
2022/05/17 07:01:33;;;;;;;3.00;0.90;;;;;;;-145.52;100.00;57022.44;5097612;28;20081;-68
2022/05/17 07:03:59;;;;;;;5.78;1.00;;;;;;;-145.52;100.00;57022.44;5095846;28;20043;-68
2022/05/17 07:06:25;;;;;;;2.03;0.65;;;;;;;-145.52;100.00;57022.44;5093885;28;20024;-66
2022/05/17 07:08:51;;;;;;;1.40;0.50;;;;;;;-145.52;100.00;57022.44;5076271;28;20111;-68
2022/05/17 07:14:00;;;;;;;2.13;0.73;;;;;;;-145.52;100.00;57022.44;5076647;28;20074;-67
2022/05/17 07:16:26;;;;;;;2.15;0.73;;;;;;;-145.52;100.00;57022.44;5076717;28;20376;-67
2022/05/17 07:18:51;;;;;;;2.67;0.85;;;;;;;-145.52;100.00;57022.44;5076827;28;20384;-67
2022/05/17 07:21:17;;;;;;;4.07;1.52;;;;;;;-145.52;100.00;57022.44;5075489;28;20029;-68
2022/05/17 07:23:43;;;;;;;4.10;0.88;;;;;;;-145.52;100.00;57022.44;5075598;28;20388;-66
2022/05/17 07:26:09;;;;;;;3.13;1.00;;;;;;;-145.52;100.00;57022.44;5076747;28;20111;-66
2022/05/17 07:28:44;;;;;;;3.53;1.02;;;;;;;-145.52;100.00;57022.44;5075522;28;20039;-67
2022/05/17 07:31:09;;;;;;;3.47;1.10;;;;;;;-145.52;100.00;57022.44;5076547;28;20598;-67
2022/05/17 07:33:35;;;;;;;3.05;1.35;;;;;;;-145.52;100.00;57022.44;5076260;28;20123;-67
2022/05/17 07:36:01;;;;;;;2.97;1.00;;;;;;;-145.52;100.00;57022.44;5076435;28;20040;-66
2022/05/17 07:38:27;;;;;;;3.00;1.00;;;;;;;-145.52;100.00;57022.44;5076273;28;20024;-67
2022/05/17 07:40:53;;;;;;;2.45;0.82;;;;;;;-145.52;100.00;57022.44;5074903;28;20028;-67
2022/05/17 07:43:19;;;;;;;1.50;0.57;;;;;;;-145.52;100.00;57022.44;5074891;28;20028;-67
2022/05/17 07:45:47;;;;;;;4.85;0.40;;;;;;;-145.52;100.00;57022.44;5074764;28;20039;-66
2022/05/17 07:48:13;;;;;;;1.80;0.50;;;;;;;-145.52;100.00;57022.44;5075079;28;20033;-68
2022/05/17 07:50:38;;;;;;;1.77;0.63;;;;;;;-145.52;100.00;57022.44;5076268;28;20035;-68
2022/05/17 07:53:06;;;;;;;4.38;0.57;;;;;;;-145.52;100.00;57022.44;5058429;28;20028;-67
2022/05/17 07:55:32;;;;;;;2.17;0.68;;;;;;;-145.52;100.00;57022.44;5074678;28;20033;-67
2022/05/17 07:57:58;;;;;;;1.85;0.52;;;;;;;-145.52;100.00;57022.44;5057924;28;20024;-68
2022/05/17 08:00:23;;;;;;;1.25;0.40;;;;;;;-145.52;100.00;57022.44;5074476;28;20101;-67
2022/05/17 08:02:49;;;;;;;5.07;0.40;;;;;;;-145.52;100.00;57022.44;5074818;28;20057;-68
2022/05/17 08:05:15;;;;;;;2.20;0.60;;;;;;;-145.52;100.00;57022.44;5075890;28;20491;-66
2022/05/17 08:07:40;;;;;;;1.92;0.43;;;;;;;-145.52;100.00;57022.44;5075171;28;20067;-66
2022/05/17 08:10:07;;;;;;;0.70;0.30;;;;;;;-145.52;100.00;57022.44;5076076;28;20037;-66
2022/05/17 08:12:32;;;;;;;2.20;0.55;;;;;;;-145.52;100.00;57022.44;5075531;28;20392;-66
2022/05/17 08:14:58;;;;;;;2.17;0.50;;;;;;;-145.52;100.00;57022.44;5075560;28;20031;-66
2022/05/17 08:17:23;;;;;;;2.08;0.68;;;;;;;-145.52;100.00;57022.44;5074792;28;20028;-67
2022/05/17 08:19:49;;;;;;;1.88;0.43;;;;;;;-145.52;100.00;57022.44;5057757;28;20082;-66
2022/05/17 08:22:15;;;;;;;1.50;0.50;;;;;;;-145.52;100.00;57022.44;5057703;28;20037;-66
2022/05/17 08:27:31;;;;;;;0.70;0.40;;;;;;;-145.52;100.00;57022.44;5074776;28;20091;-66
2022/05/17 08:30:00;;;;;;;1.88;0.63;;;;;;;-145.52;100.00;57022.44;5075327;28;20032;-66
2022/05/17 08:35:10;;;;;;;0.80;0.30;;;;;;;-145.52;100.00;57022.44;5074619;28;20498;-68
2022/05/17 08:37:35;;;;;;;0.70;0.22;;;;;;;-145.52;100.00;57022.44;5074109;28;20037;-66
2022/05/17 08:40:01;;;;;;;2.50;0.30;;;;;;;-145.52;100.00;57022.44;5075120;28;20036;-65
2022/05/17 08:42:56;;;;;;;2.25;0.60;;;;;;;-145.52;100.00;57022.44;5074346;28;20033;-66
2022/05/17 08:45:40;;;;;;;0.82;0.38;;;;;;;-145.52;100.00;57022.44;5074334;28;20048;-67
2022/05/17 08:48:14;;;;;;;1.00;0.30;;;;;;;-145.52;100.00;57022.44;5073741;28;20044;-68
2022/05/17 08:50:39;;;;;;;1.20;0.30;;;;;;;-145.52;100.00;57022.44;5075554;28;20036;-66
2022/05/17 08:53:10;;;;;;;4.30;0.43;;;;;;;-145.52;100.00;57022.44;5057311;28;20089;-66
2022/05/17 08:55:40;;;;;;;1.27;0.40;;;;;;;-145.52;100.00;57022.44;5075029;28;20044;-66
2022/05/17 08:58:15;;;;;;;1.40;0.70;;;;;;;-145.52;100.00;57022.44;5074744;28;20093;-67
2022/05/17 09:00:44;;;;;;;2.58;0.88;;;;;;;-145.52;100.00;57022.44;5073607;28;20032;-67
2022/05/17 09:03:36;;;;;;;0.60;0.30;;;;;;;-145.52;100.00;57022.44;5074263;28;20039;-66
2022/05/17 09:06:08;;;;;;;0.97;0.40;;;;;;;-145.52;100.00;57022.44;5074749;28;20078;-67
2022/05/17 09:09:03;;;;;;;1.00;0.40;;;;;;;-145.52;100.00;57022.44;5074441;28;20045;-67
2022/05/17 09:11:46;;;;;;;2.55;0.80;;;;;;;-145.52;100.00;57022.44;5072946;28;20028;-66
2022/05/17 09:14:15;;;;;;;;;;;;;;;-145.52;100.00;57022.44;5073189;28;20065;-66
2022/05/17 09:16:45;;;;;;;0.77;0.30;;;;;;;-145.52;100.00;57022.44;5073249;28;19913;-66
2022/05/17 09:19:11;;;;;;;0.88;0.30;;;;;;;-145.52;100.00;57022.44;5074331;28;20111;-66
2022/05/17 09:21:41;;;;;;;2.35;0.90;;;;;;;-145.52;100.00;57022.44;5073166;28;20082;-65
2022/05/17 09:24:12;;;;;;;3.35;0.88;;;;;;;-145.52;100.00;57022.44;5072898;28;20082;-66
2022/05/17 09:26:39;;;;;;;2.17;0.75;;;;;;;-145.52;100.00;57022.44;5072341;28;20085;-66
2022/05/17 09:29:20;;;;;;;5.63;1.50;;;;;;;-145.52;100.00;57022.44;5055612;28;20373;-65
2022/05/17 09:31:54;;;;;;;3.28;0.70;;;;;;;-145.52;100.00;57022.44;5070406;28;20060;-65
2022/05/17 09:34:31;;;;;;;1.20;0.60;;;;;;;-145.52;100.00;57022.44;5072915;28;20062;-67
2022/05/17 09:37:06;;;;;;;1.23;0.50;;;;;;;-145.52;100.00;57022.44;5074329;28;20086;-66
2022/05/17 09:39:31;;;;;;;2.72;0.77;;;;;;;-145.52;100.00;57022.44;5074297;28;20093;-66
2022/05/17 09:42:02;;;;;;;3.78;0.90;;;;;;;-145.52;100.00;57022.44;5083563;28;20422;-65
2022/05/17 09:44:30;;;;;;;1.48;0.80;;;;;;;-145.52;100.00;57022.44;5089232;28;20067;-65
2022/05/17 09:47:03;;;;;;;2.50;0.73;;;;;;;-145.52;100.00;57022.44;5078108;28;20037;-66
2022/05/17 09:52:32;;;;;;;1.92;1.00;;;;;;;-145.52;100.00;57022.44;5072545;28;20059;-67
2022/05/17 09:55:20;;;;;;;1.65;0.95;;;;;;;-145.52;100.00;57022.44;5081740;28;20476;-66
2022/05/17 09:58:28;;;;;;;2.00;1.02;;;;;;;-145.52;100.00;57022.44;5094365;28;20111;-67
2022/05/17 10:00:54;;;;;;;5.18;1.10;;;;;;;-145.52;100.00;57022.44;5070465;28;20040;-67
2022/05/17 10:03:34;;;;;;;1.15;0.80;;;;;;;-145.52;100.00;57022.44;5072071;28;20060;-66
2022/05/17 10:06:04;;;;;;;1.30;0.70;;;;;;;-145.52;100.00;57022.44;5070019;28;20090;-66
2022/05/17 10:08:59;;;;;;;1.60;0.70;;;;;;;-145.52;100.00;57022.44;5069984;28;20045;-68
2022/05/17 10:11:26;;;;;;;2.03;0.68;;;;;;;-145.52;100.00;57022.44;5073619;28;20032;-68
2022/05/17 10:14:12;;;;;;;2.22;0.80;;;;;;;-145.52;100.00;57022.44;5072268;28;20028;-68
2022/05/17 10:16:49;;;;;;;2.78;0.93;;;;;;;-145.52;100.00;57022.44;5072290;28;20349;-66
2022/05/17 10:19:45;;;;;;;3.40;0.98;;;;;;;-145.52;100.00;57022.44;5072282;28;20033;-67
2022/05/17 10:22:27;;;;;;;3.30;0.40;;;;;;;-145.52;100.00;57022.44;5073415;28;20047;-66
2022/05/17 10:24:52;;;;;;;1.98;0.57;;;;;;;-145.52;100.00;57022.44;5093269;28;20036;-66
2022/05/17 10:27:40;;;;;;;0.95;0.40;;;;;;;-145.52;100.00;57022.44;5089133;28;20036;-68
2022/05/17 10:30:11;;;;;;;1.48;0.40;;;;;;;-145.52;100.00;57022.44;5092021;28;20471;-66
2022/05/17 10:32:50;;;;;;;2.33;0.70;;;;;;;-145.52;100.00;57022.44;5091404;28;20032;-66
2022/05/17 10:35:40;;;;;;;0.57;0.30;;;;;;;-145.52;100.00;57022.44;5086780;28;20123;-66
2022/05/17 10:38:27;;;;;;;0.68;0.40;;;;;;;-145.52;100.00;57022.44;5070833;28;20021;-64
2022/05/17 10:40:55;;;;;;;2.55;0.30;;;;;;;-145.52;100.00;57022.44;5092270;28;20044;-66
2022/05/17 10:43:26;;;;;;;1.13;0.47;;;;;;;-145.52;100.00;57022.44;5093559;28;20103;-67
2022/05/17 10:46:04;;;;;;;1.98;0.77;;;;;;;-145.52;100.00;57022.44;5092310;28;20029;-66
2022/05/17 10:48:53;;;;;;;4.07;1.73;;;;;;;-145.52;100.00;57022.44;5093266;28;20062;-67
2022/05/17 10:51:29;;;;;;;3.15;0.50;;;;;;;-145.52;100.00;57022.44;5086260;28;20043;-67
2022/05/17 10:54:24;;;;;;;4.10;0.40;;;;;;;-145.52;100.00;57022.44;5072992;28;20031;-67
2022/05/17 10:57:02;;;;;;;2.45;0.50;;;;;;;-145.52;100.00;57022.44;5071502;28;20029;-67
2022/05/17 10:59:45;;;;;;;1.60;0.40;;;;;;;-145.52;100.00;57022.44;5073145;28;20024;-67
2022/05/17 11:02:32;;;;;;;3.67;0.50;;;;;;;-145.52;100.00;57022.44;5073480;28;20036;-67
2022/05/17 11:05:19;;;;;;;0.38;0.25;;;;;;;-145.52;100.00;57022.44;5072991;28;20032;-68
2022/05/17 11:08:05;;;;;;;2.17;0.40;;;;;;;-145.52;100.00;57022.44;5072661;28;20048;-68
2022/05/17 11:10:38;;;;;;;1.17;0.43;;;;;;;-145.52;100.00;57022.44;5071984;28;20085;-68
2022/05/17 11:13:09;;;;;;;1.42;0.40;;;;;;;-145.52;100.00;57022.44;5071851;28;20039;-67
2022/05/17 11:15:40;;;;;;;2.15;0.40;;;;;;;-145.52;100.00;57022.44;5071914;28;20115;-67
2022/05/17 11:18:45;;;;;;;1.40;0.43;;;;;;;-145.52;100.00;57022.44;5071706;28;20024;-66
2022/05/17 11:21:20;;;;;;;1.95;0.30;;;;;;;-145.52;100.00;57022.44;5071903;28;20036;-67
2022/05/17 11:23:53;;;;;;;1.80;0.50;;;;;;;-145.52;100.00;57022.44;5072286;28;20039;-67
2022/05/17 11:26:43;;;;;;;0.90;0.30;;;;;;;-145.52;100.00;57022.44;5073786;28;20038;-68
2022/05/17 11:29:35;;;;;;;1.48;0.30;;;;;;;-145.52;100.00;57022.44;5071684;28;20047;-68